Time;durP1;ratioP1;P1;durP2;ratioP2;P2;SDS_P1;SDS_P2;PMS_P1;PMS_P2;Temp;Humidity;BMP_temperature;BMP_pressure;BME280_temperature;BME280_humidity;BME280_pressure;Samples;Min_cycle;Max_cycle;Signal;HPM_P1;HPM_P2
2023/06/16 00:01:23;;;;;;;16.10;13.30;;;;;;;14.18;77.80;100578.38;106112;1260;97114;-80
2023/06/16 00:04:09;;;;;;;15.50;13.70;;;;;;;14.16;77.78;100574.81;106074;1262;101256;-80
2023/06/16 00:06:56;;;;;;;18.30;13.50;;;;;;;14.16;78.34;100572.33;106024;1260;99878;-81
2023/06/16 00:09:43;;;;;;;18.70;13.80;;;;;;;14.16;78.38;100573.69;105991;1258;99508;-81
2023/06/16 00:12:29;;;;;;;16.80;13.60;;;;;;;14.13;78.08;100571.42;105945;1258;96828;-78
2023/06/16 00:15:14;;;;;;;17.00;14.40;;;;;;;14.07;78.12;100567.20;105502;1262;96613;-80
2023/06/16 00:18:00;;;;;;;19.00;14.70;;;;;;;14.04;78.54;100565.21;105690;1259;101237;-81
2023/06/16 00:20:51;;;;;;;18.10;15.00;;;;;;;14.00;78.15;100563.89;106061;1259;99061;-81
2023/06/16 00:23:37;;;;;;;18.40;15.00;;;;;;;13.98;78.73;100563.81;106066;1259;97728;-81
2023/06/16 00:26:23;;;;;;;17.30;15.40;;;;;;;13.98;79.16;100563.91;106005;1265;98535;-82
2023/06/16 00:29:09;;;;;;;20.70;14.20;;;;;;;13.97;79.05;100564.03;106071;1259;96817;-80
2023/06/16 00:31:55;;;;;;;20.60;15.20;;;;;;;13.93;79.18;100563.73;106170;1262;101613;-81
2023/06/16 00:34:41;;;;;;;18.80;16.00;;;;;;;13.91;79.34;100561.19;106108;1262;99749;-81
2023/06/16 00:37:29;;;;;;;18.00;15.40;;;;;;;13.90;79.41;100558.08;106102;1265;98349;-80
2023/06/16 00:40:15;;;;;;;17.80;14.90;;;;;;;13.91;79.49;100555.95;106077;1260;97112;-80
2023/06/16 00:43:02;;;;;;;18.90;14.90;;;;;;;13.88;79.13;100555.08;106144;1262;96476;-80
2023/06/16 00:45:49;;;;;;;21.70;15.40;;;;;;;13.84;78.65;100553.36;106071;1260;100778;-80
2023/06/16 00:48:35;;;;;;;19.20;15.10;;;;;;;13.76;78.29;100552.57;105883;1265;99937;-80
2023/06/16 00:51:21;;;;;;;23.50;17.30;;;;;;;13.66;78.49;100550.69;106020;1261;97747;-81
2023/06/16 00:54:07;;;;;;;20.00;15.80;;;;;;;13.62;78.78;100551.96;106091;1258;96683;-81
2023/06/16 00:56:53;;;;;;;17.90;15.50;;;;;;;13.60;79.23;100554.36;105714;1260;96830;-80
2023/06/16 00:59:40;;;;;;;21.60;16.30;;;;;;;13.60;79.62;100557.11;106035;1261;101232;-82
2023/06/16 01:02:26;;;;;;;21.00;16.20;;;;;;;13.59;79.69;100557.76;106032;1261;99205;-81
2023/06/16 01:05:19;;;;;;;26.20;17.20;;;;;;;13.58;79.35;100560.38;106182;1262;97818;-81
2023/06/16 01:08:13;;;;;;;23.30;18.70;;;;;;;13.55;79.49;100562.05;106092;1262;96636;-81
2023/06/16 01:11:57;;;;;;;21.30;18.10;;;;;;;13.50;79.77;100563.05;106137;1262;98337;-81
2023/06/16 01:15:15;;;;;;;20.00;16.00;;;;;;;13.43;79.71;100562.77;105874;1263;101556;-80
2023/06/16 01:18:02;;;;;;;17.30;14.90;;;;;;;13.36;79.11;100561.65;106019;1259;99153;-80
2023/06/16 01:21:08;;;;;;;20.20;15.50;;;;;;;13.28;78.69;100553.69;106064;1262;97763;-79
2023/06/16 01:24:03;;;;;;;19.40;15.60;;;;;;;13.21;78.74;100553.22;106005;1260;96631;-81
2023/06/16 01:26:52;;;;;;;19.00;14.30;;;;;;;13.15;79.06;100553.67;106103;1259;97061;-80
2023/06/16 01:29:39;;;;;;;17.40;13.90;;;;;;;13.07;78.80;100553.86;106046;1260;101216;-80
2023/06/16 01:32:26;;;;;;;15.60;13.80;;;;;;;13.00;78.79;100555.14;106006;1265;100343;-79
2023/06/16 01:35:16;;;;;;;18.10;14.30;;;;;;;12.97;79.09;100555.20;106067;1263;99118;-79
2023/06/16 01:38:02;;;;;;;16.70;14.90;;;;;;;12.96;79.35;100558.39;106180;1262;96645;-80
2023/06/16 01:40:50;;;;;;;18.40;15.20;;;;;;;12.96;79.43;100558.89;106106;1259;96543;-80
2023/06/16 01:43:36;;;;;;;16.50;14.20;;;;;;;12.96;79.51;100559.64;106125;1265;99982;-79
2023/06/16 01:46:24;;;;;;;16.70;14.60;;;;;;;12.95;79.33;100560.99;106039;1259;99121;-83
2023/06/16 01:49:10;;;;;;;19.10;15.30;;;;;;;12.92;79.04;100560.58;106201;1262;97923;-81
2023/06/16 01:51:56;;;;;;;15.90;14.20;;;;;;;12.88;79.22;100560.36;105920;1260;97483;-81
2023/06/16 01:54:42;;;;;;;14.10;12.60;;;;;;;12.82;78.89;100559.48;106206;1259;97051;-79
2023/06/16 01:57:27;;;;;;;15.00;12.60;;;;;;;12.75;78.81;100564.23;106089;1273;100043;-80
2023/06/16 02:00:21;;;;;;;18.00;12.50;;;;;;;12.69;79.10;100565.17;106241;1260;99100;-81
2023/06/16 02:03:13;;;;;;;12.60;11.20;;;;;;;12.65;79.16;100563.42;105624;1262;97765;-80
2023/06/16 02:06:02;;;;;;;16.60;13.40;;;;;;;12.62;79.38;100563.12;105582;1264;96737;-80
2023/06/16 02:08:52;;;;;;;18.90;14.70;;;;;;;12.58;79.53;100565.75;105562;1262;96999;-80
2023/06/16 02:11:38;;;;;;;19.00;15.20;;;;;;;12.56;79.63;100566.20;105669;1259;100006;-81
2023/06/16 02:14:27;;;;;;;17.10;14.80;;;;;;;12.57;79.85;100569.39;105763;1259;100515;-80
2023/06/16 02:17:12;;;;;;;21.00;14.70;;;;;;;12.56;79.65;100567.69;105547;1259;97741;-82
2023/06/16 02:19:58;;;;;;;19.60;14.70;;;;;;;12.52;79.69;100565.84;105655;1265;96621;-81
2023/06/16 02:22:44;;;;;;;16.90;14.00;;;;;;;12.44;79.88;100558.29;105523;1263;97106;-79
2023/06/16 02:25:30;;;;;;;15.60;13.90;;;;;;;12.37;79.93;100554.75;105245;1260;101338;-79
2023/06/16 02:28:16;;;;;;;14.90;13.30;;;;;;;12.32;80.01;100551.80;105485;1265;100438;-80
2023/06/16 02:31:02;;;;;;;18.50;13.90;;;;;;;12.27;79.92;100551.39;105943;1262;97737;-82
2023/06/16 02:33:51;;;;;;;14.80;12.40;;;;;;;12.24;80.25;100549.91;105885;1259;96617;-81
2023/06/16 02:36:37;;;;;;;16.50;12.30;;;;;;;12.20;79.82;100549.15;105833;1259;96698;-80
2023/06/16 02:39:23;;;;;;;15.90;11.90;;;;;;;12.14;79.88;100546.89;105935;1261;101848;-81
2023/06/16 02:42:09;;;;;;;12.40;11.00;;;;;;;12.09;79.99;100551.23;105967;1265;99133;-80
2023/06/16 02:44:54;;;;;;;15.30;11.50;;;;;;;12.07;79.95;100553.21;106093;1260;97750;-81
2023/06/16 02:47:41;;;;;;;16.60;12.00;;;;;;;12.03;79.93;100552.90;106008;1265;96512;-81
2023/06/16 02:50:27;;;;;;;14.00;12.60;;;;;;;12.02;80.50;100556.31;106011;1260;96630;-81
2023/06/16 02:53:14;;;;;;;14.30;12.20;;;;;;;11.99;80.75;100552.59;105565;1263;99959;-82
2023/06/16 02:56:00;;;;;;;14.60;11.20;;;;;;;11.93;80.63;100554.20;106066;1263;100327;-82
2023/06/16 02:58:47;;;;;;;16.30;12.20;;;;;;;11.90;80.62;100554.27;106138;1262;98974;-82
2023/06/16 03:01:33;;;;;;;14.50;12.00;;;;;;;11.92;80.74;100555.14;105678;1263;96624;-80
2023/06/16 03:04:30;;;;;;;16.30;13.00;;;;;;;11.92;80.89;100559.14;105495;1264;96744;-80
2023/06/16 03:07:36;;;;;;;13.70;11.60;;;;;;;11.91;81.19;100560.45;106026;1261;101752;-80
2023/06/16 03:10:23;;;;;;;12.50;11.30;;;;;;;11.87;81.17;100560.56;106145;1259;100309;-83
2023/06/16 03:13:22;;;;;;;14.50;12.00;;;;;;;11.86;81.06;100559.30;106200;1260;97774;-81
2023/06/16 03:16:09;;;;;;;13.70;12.30;;;;;;;11.84;81.52;100562.02;106130;1264;96622;-80
2023/06/16 03:18:55;;;;;;;14.10;12.60;;;;;;;11.82;81.54;100559.78;106097;1262;96994;-81
2023/06/16 03:21:41;;;;;;;15.00;12.00;;;;;;;11.82;82.03;100563.05;106197;1261;100572;-82
2023/06/16 03:24:28;;;;;;;13.90;12.50;;;;;;;11.82;82.28;100562.84;106234;1259;100490;-80
2023/06/16 03:27:15;;;;;;;15.60;12.30;;;;;;;11.83;82.41;100563.66;106016;1265;97835;-81
2023/06/16 03:30:10;;;;;;;15.10;12.60;;;;;;;11.84;82.68;100565.94;106097;1263;96696;-82
2023/06/16 03:33:19;;;;;;;14.00;12.40;;;;;;;11.88;83.22;100565.64;106125;1266;96638;-80
2023/06/16 03:36:06;;;;;;;13.50;11.70;;;;;;;11.91;83.50;100563.85;105989;1261;101769;-82
2023/06/16 03:39:00;;;;;;;13.90;11.80;;;;;;;11.94;83.65;100561.10;106115;1260;99175;-81
2023/06/16 03:41:46;;;;;;;15.60;12.40;;;;;;;11.97;84.13;100560.47;106166;1263;97729;-79
2023/06/16 03:44:32;;;;;;;12.00;10.80;;;;;;;12.02;84.18;100568.84;106134;1264;96541;-80
2023/06/16 03:47:19;;;;;;;13.00;11.30;;;;;;;12.05;84.22;100568.19;106154;1260;97162;-82
2023/06/16 03:50:05;;;;;;;17.30;13.30;;;;;;;12.07;84.58;100566.06;106147;1264;100025;-82
2023/06/16 03:52:52;;;;;;;17.30;14.00;;;;;;;12.10;84.93;100570.83;106025;1263;100385;-81
2023/06/16 03:55:38;;;;;;;14.50;13.00;;;;;;;12.17;84.91;100574.14;106155;1262;98505;-81
2023/06/16 03:58:24;;;;;;;17.90;15.70;;;;;;;12.27;85.42;100577.22;106071;1261;96718;-80
2023/06/16 04:01:09;;;;;;;19.90;16.80;;;;;;;12.38;86.21;100577.40;105513;1263;96585;-80
2023/06/16 04:03:56;;;;;;;21.70;17.90;;;;;;;12.50;86.80;100582.94;105652;1267;100211;-80
2023/06/16 04:06:43;;;;;;;25.50;20.00;;;;;;;12.63;87.26;100583.63;105599;1273;99147;-79
2023/06/16 04:09:30;;;;;;;24.30;20.50;;;;;;;12.77;88.16;100585.35;106051;1263;98626;-81
2023/06/16 04:12:16;;;;;;;27.50;22.10;;;;;;;12.90;88.50;100583.41;105888;1265;96584;-80
2023/06/16 04:15:03;;;;;;;29.30;22.40;;;;;;;13.02;88.87;100579.77;106084;1265;96847;-81
2023/06/16 04:17:49;;;;;;;25.50;22.10;;;;;;;13.14;89.26;100577.96;106143;1260;100103;-80
2023/06/16 04:20:35;;;;;;;27.60;21.70;;;;;;;13.27;89.42;100576.98;106289;1262;100354;-82
2023/06/16 04:23:21;;;;;;;25.60;21.40;;;;;;;13.41;89.75;100575.51;106034;1267;98793;-79
2023/06/16 04:26:08;;;;;;;23.70;21.20;;;;;;;13.54;89.93;100580.61;106113;1261;96665;-81
2023/06/16 04:28:55;;;;;;;26.90;20.40;;;;;;;13.67;89.93;100577.81;106241;1274;97394;-81
2023/06/16 04:31:42;;;;;;;27.70;19.90;;;;;;;13.80;90.04;100576.64;106083;1263;101263;-82
2023/06/16 04:34:31;;;;;;;27.70;20.60;;;;;;;13.94;90.16;100576.58;106146;1265;100099;-79
2023/06/16 04:37:18;;;;;;;25.10;21.10;;;;;;;14.07;90.35;100579.14;106115;1263;98788;-81
2023/06/16 04:40:05;;;;;;;25.90;22.30;;;;;;;14.19;90.98;100580.81;106018;1266;96629;-80
2023/06/16 04:42:51;;;;;;;30.90;22.40;;;;;;;14.31;91.36;100583.55;105938;1265;97276;-80
2023/06/16 04:45:36;;;;;;;26.00;21.70;;;;;;;14.42;91.22;100581.95;105989;1262;101253;-81
2023/06/16 04:48:25;;;;;;;26.70;23.00;;;;;;;14.53;91.13;100583.15;106043;1263;101340;-82
2023/06/16 04:51:11;;;;;;;25.50;22.10;;;;;;;14.61;90.55;100579.94;105997;1265;97729;-81
2023/06/16 04:53:57;;;;;;;28.30;22.20;;;;;;;14.70;90.53;100576.09;106138;1260;97548;-82
2023/06/16 04:56:42;;;;;;;28.20;22.10;;;;;;;14.81;90.50;100577.73;106057;1263;97243;-81
2023/06/16 04:59:31;;;;;;;26.00;21.40;;;;;;;14.92;90.37;100574.73;106125;1263;100726;-80
2023/06/16 05:02:17;;;;;;;30.20;22.10;;;;;;;15.03;90.05;100577.58;105961;1260;99944;-80
2023/06/16 05:05:03;;;;;;;26.90;21.30;;;;;;;15.15;89.90;100570.90;105860;1260;97745;-81
2023/06/16 05:07:49;;;;;;;25.20;20.90;;;;;;;15.26;89.67;100570.21;105879;1261;96647;-81
2023/06/16 05:10:34;;;;;;;23.70;20.40;;;;;;;15.38;89.49;100570.77;106042;1261;97081;-82
2023/06/16 05:13:20;;;;;;;26.20;21.00;;;;;;;15.50;89.14;100568.13;106038;1264;99990;-83
2023/06/16 05:16:06;;;;;;;23.60;19.40;;;;;;;15.59;88.94;100570.76;105998;1263;99113;-82
2023/06/16 05:18:52;;;;;;;25.60;19.30;;;;;;;15.65;88.61;100570.42;105978;1261;98390;-84
2023/06/16 05:21:38;;;;;;;23.60;18.80;;;;;;;15.74;88.21;100572.66;105864;1267;96600;-81
2023/06/16 05:24:23;;;;;;;21.80;19.40;;;;;;;15.84;87.87;100572.90;105815;1266;96582;-80
2023/06/16 05:27:09;;;;;;;25.30;18.90;;;;;;;15.93;87.63;100568.46;105811;1261;101322;-80
2023/06/16 05:29:55;;;;;;;22.20;19.30;;;;;;;16.02;87.99;100568.99;105863;1261;99108;-81
2023/06/16 05:32:41;;;;;;;27.10;19.60;;;;;;;16.11;88.39;100568.95;106058;1264;97481;-83
2023/06/16 05:35:27;;;;;;;20.80;18.20;;;;;;;16.20;88.11;100568.68;105827;1261;96611;-82
2023/06/16 05:38:13;;;;;;;21.40;18.10;;;;;;;16.30;87.56;100565.55;106027;1261;96508;-81
2023/06/16 05:40:59;;;;;;;20.30;17.00;;;;;;;16.37;87.49;100571.63;105882;1264;100003;-79
2023/06/16 05:43:45;;;;;;;19.90;16.60;;;;;;;16.47;87.30;100570.69;105990;1261;99075;-81
2023/06/16 05:46:30;;;;;;;19.10;15.70;;;;;;;16.63;87.26;100572.52;106022;1259;98290;-80
2023/06/16 05:49:17;;;;;;;14.30;12.80;;;;;;;16.80;86.80;100572.80;106076;1264;97636;-79
2023/06/16 05:52:05;;;;;;;17.60;15.70;;;;;;;16.97;86.45;100576.58;105975;1261;96625;-81
2023/06/16 05:54:51;;;;;;;16.10;14.50;;;;;;;17.14;86.37;100573.91;106073;1261;100859;-85
2023/06/16 05:57:43;;;;;;;16.60;13.70;;;;;;;17.31;85.74;100572.52;106036;1264;99850;-86
2023/06/16 06:00:30;;;;;;;14.40;12.80;;;;;;;17.44;85.14;100571.14;106008;1260;97725;-88
2023/06/16 06:03:19;;;;;;;18.50;14.30;;;;;;;17.58;84.57;100570.06;105917;1260;96647;-84
2023/06/16 06:06:06;;;;;;;18.90;14.60;;;;;;;17.69;84.48;100569.10;105753;1263;96403;-85
2023/06/16 06:08:52;;;;;;;17.30;14.70;;;;;;;17.78;84.43;100564.82;105847;1263;99987;-82
2023/06/16 06:15:22;;;;;;;15.00;12.90;;;;;;;18.09;84.03;100567.32;105951;1261;99033;-83
2023/06/16 06:18:10;;;;;;;16.90;13.10;;;;;;;18.20;83.16;100566.94;105556;1259;96710;-84
2023/06/16 06:20:58;;;;;;;16.90;12.50;;;;;;;18.34;83.18;100566.05;105738;1262;97068;-84
2023/06/16 06:23:45;;;;;;;16.00;11.70;;;;;;;18.49;82.06;100565.48;105837;1259;100008;-84
2023/06/16 06:26:31;;;;;;;13.50;10.80;;;;;;;18.62;81.64;100567.27;105896;1263;99231;-83
2023/06/16 06:29:19;;;;;;;14.20;11.50;;;;;;;18.75;80.66;100565.96;105732;1259;97728;-86
2023/06/16 06:32:07;;;;;;;11.40;10.10;;;;;;;18.87;80.78;100566.16;105777;1259;96825;-81
2023/06/16 06:34:54;;;;;;;17.50;12.10;;;;;;;18.98;79.37;100566.48;105969;1265;97149;-83
2023/06/16 06:37:41;;;;;;;14.10;12.40;;;;;;;19.08;78.96;100562.61;106341;1259;101663;-81
2023/06/16 06:40:27;;;;;;;12.00;10.90;;;;;;;19.17;79.10;100565.98;105993;1263;100354;-80
2023/06/16 06:43:14;;;;;;;14.50;11.60;;;;;;;19.28;78.66;100564.44;106023;1263;97792;-81
2023/06/16 06:46:07;;;;;;;12.20;10.00;;;;;;;19.38;77.25;100560.52;105940;1259;96745;-82
2023/06/16 06:48:58;;;;;;;;;;;;;;;19.47;76.45;100561.39;105393;1265;96795;-81
2023/06/16 06:51:44;;;;;;;12.30;10.80;;;;;;;19.52;76.36;100565.76;105356;1267;101654;-82
2023/06/16 06:54:29;;;;;;;11.10;10.00;;;;;;;19.60;76.36;100560.95;105901;1263;99193;-82
2023/06/16 06:57:15;;;;;;;16.00;11.00;;;;;;;19.68;75.18;100562.07;105724;1265;97797;-83
2023/06/16 07:00:00;;;;;;;12.60;11.00;;;;;;;19.73;74.40;100566.67;105693;1262;96617;-83
2023/06/16 07:02:46;;;;;;;13.00;10.10;;;;;;;19.79;74.20;100563.02;106129;1262;96889;-84
2023/06/16 07:05:33;;;;;;;14.10;9.90;;;;;;;19.86;74.01;100566.43;105934;1265;101217;-82
2023/06/16 07:08:19;;;;;;;9.90;8.90;;;;;;;19.95;73.76;100566.95;106137;1261;100145;-84
2023/06/16 07:11:05;;;;;;;11.40;7.70;;;;;;;20.05;72.89;100567.11;105739;1263;98069;-84
2023/06/16 07:13:50;;;;;;;9.80;7.70;;;;;;;20.12;71.47;100567.97;105956;1260;96591;-82
2023/06/16 07:16:36;;;;;;;9.10;6.90;;;;;;;20.19;71.23;100566.30;105625;1265;96610;-83
2023/06/16 07:19:23;;;;;;;13.90;9.30;;;;;;;20.30;71.53;100563.42;105928;1259;100854;-83
2023/06/16 07:22:09;;;;;;;10.10;7.90;;;;;;;20.40;71.00;100563.40;105823;1265;99107;-82
2023/06/16 07:24:55;;;;;;;10.30;8.80;;;;;;;20.50;70.30;100562.45;105751;1265;97720;-82
2023/06/16 07:27:41;;;;;;;12.00;9.20;;;;;;;20.55;69.68;100565.02;105880;1262;96961;-82
2023/06/16 07:30:26;;;;;;;9.70;8.60;;;;;;;20.55;69.28;100560.88;105800;1265;96633;-83
2023/06/16 07:33:11;;;;;;;17.40;9.10;;;;;;;20.57;69.43;100561.39;105708;1259;101760;-83
2023/06/16 07:35:58;;;;;;;16.90;8.80;;;;;;;20.65;70.33;100559.86;105681;1260;99248;-82
2023/06/16 07:38:43;;;;;;;12.10;8.60;;;;;;;20.75;70.06;100560.91;105925;1262;98967;-83
2023/06/16 07:41:29;;;;;;;9.40;7.90;;;;;;;20.86;70.17;100562.02;105896;1262;97495;-82
2023/06/16 07:44:14;;;;;;;11.30;9.40;;;;;;;20.94;69.44;100561.51;105631;1262;96862;-83
2023/06/16 07:47:01;;;;;;;14.60;8.70;;;;;;;21.02;69.83;100554.91;105824;1259;100024;-84
2023/06/16 07:49:46;;;;;;;10.90;8.60;;;;;;;21.11;69.38;100557.70;105954;1262;99098;-84
2023/06/16 07:52:32;;;;;;;10.50;8.10;;;;;;;21.24;68.94;100560.00;105653;1265;97880;-84
2023/06/16 07:55:18;;;;;;;11.10;9.00;;;;;;;21.34;68.42;100560.50;105806;1265;96699;-82
2023/06/16 07:58:04;;;;;;;16.30;8.30;;;;;;;21.40;67.52;100557.22;105759;1264;96645;-83
2023/06/16 08:00:51;;;;;;;11.80;8.00;;;;;;;21.41;67.16;100555.59;105747;1266;100830;-82
2023/06/16 08:03:37;;;;;;;8.40;7.40;;;;;;;21.48;67.33;100553.80;105779;1262;99096;-82
2023/06/16 08:06:23;;;;;;;10.80;9.20;;;;;;;21.57;67.37;100555.20;105968;1265;99492;-83
2023/06/16 08:09:12;;;;;;;18.40;8.90;;;;;;;21.64;67.12;100556.28;105762;1265;96622;-82
2023/06/16 08:11:57;;;;;;;10.10;7.90;;;;;;;21.69;66.88;100555.08;105684;1264;96708;-81
2023/06/16 08:14:43;;;;;;;11.40;8.50;;;;;;;21.74;65.90;100550.65;105732;1265;99995;-81
2023/06/16 08:17:28;;;;;;;11.40;7.70;;;;;;;21.77;65.60;100549.03;105674;1263;99168;-84
2023/06/16 08:20:13;;;;;;;7.50;6.90;;;;;;;21.85;65.84;100548.95;105801;1266;98944;-83
2023/06/16 08:22:59;;;;;;;13.40;7.70;;;;;;;21.98;65.80;100548.55;105757;1261;96713;-82
2023/06/16 08:25:45;;;;;;;9.60;7.40;;;;;;;22.07;65.93;100545.13;105725;1265;97802;-82
2023/06/16 08:28:31;;;;;;;8.40;6.90;;;;;;;22.20;65.64;100548.16;105820;1265;100885;-83
2023/06/16 08:31:16;;;;;;;9.30;7.70;;;;;;;22.33;65.15;100545.17;105822;1261;100044;-82
2023/06/16 08:34:01;;;;;;;9.40;7.90;;;;;;;22.45;66.06;100547.58;105646;1261;99685;-83
2023/06/16 08:36:47;;;;;;;10.30;8.30;;;;;;;22.51;64.63;100547.39;105850;1264;96561;-82
2023/06/16 08:39:33;;;;;;;8.30;7.60;;;;;;;22.41;63.23;100546.63;105704;1260;97141;-83
2023/06/16 08:42:20;;;;;;;10.20;6.80;;;;;;;22.33;62.95;100546.64;105654;1261;100012;-84
2023/06/16 08:45:06;;;;;;;7.90;6.70;;;;;;;22.20;62.13;100550.66;105797;1261;99089;-83
2023/06/16 08:47:52;;;;;;;7.40;5.70;;;;;;;22.07;62.79;100558.00;105667;1264;97839;-83
2023/06/16 08:50:38;;;;;;;7.00;6.30;;;;;;;22.02;62.86;100556.72;105913;1260;96632;-84
2023/06/16 08:53:26;;;;;;;8.90;7.00;;;;;;;21.99;62.47;100554.30;105719;1267;97129;-83
2023/06/16 08:56:12;;;;;;;8.30;7.40;;;;;;;21.98;62.46;100553.20;105632;1263;99996;-84
2023/06/16 08:59:01;;;;;;;8.20;7.10;;;;;;;21.91;61.78;100547.41;105770;1264;99101;-83
2023/06/16 09:01:47;;;;;;;7.10;6.20;;;;;;;21.93;62.30;100546.24;105712;1259;97842;-84
2023/06/16 09:04:33;;;;;;;7.70;6.30;;;;;;;22.04;62.92;100543.31;105606;1261;97019;-83
2023/06/16 09:07:19;;;;;;;8.80;6.80;;;;;;;22.10;62.69;100542.70;105745;1262;97121;-84
2023/06/16 09:10:06;;;;;;;10.20;7.30;;;;;;;22.13;62.06;100542.88;105510;1263;101144;-82
2023/06/16 09:12:53;;;;;;;11.00;6.80;;;;;;;22.13;61.36;100543.37;105594;1266;100676;-84
2023/06/16 09:15:41;;;;;;;9.40;6.60;;;;;;;22.05;61.19;100543.59;105708;1260;99060;-83
2023/06/16 09:18:37;;;;;;;8.30;6.80;;;;;;;22.04;61.11;100541.34;105651;1264;97138;-83
2023/06/16 09:21:23;;;;;;;7.00;6.30;;;;;;;22.07;60.51;100535.30;105685;1261;97346;-84
2023/06/16 09:24:08;;;;;;;11.20;6.50;;;;;;;22.08;60.00;100535.27;105735;1264;101382;-82
2023/06/16 09:26:59;;;;;;;8.40;5.60;;;;;;;22.12;61.12;100532.66;105777;1264;108365;-82
2023/06/16 09:29:50;;;;;;;9.80;6.60;;;;;;;22.25;61.40;100533.06;105948;1261;98482;-85
2023/06/16 09:32:39;;;;;;;7.80;6.60;;;;;;;22.37;61.28;100529.69;105719;1266;96700;-84
2023/06/16 09:35:27;;;;;;;7.40;6.50;;;;;;;22.53;61.52;100529.88;105766;1267;96539;-84
2023/06/16 09:38:13;;;;;;;8.50;6.70;;;;;;;22.65;60.10;100524.48;105604;1264;100086;-82
2023/06/16 09:41:08;;;;;;;7.20;6.40;;;;;;;22.73;60.41;100518.29;105619;1261;99999;-84
2023/06/16 09:43:58;;;;;;;7.80;5.50;;;;;;;22.84;59.45;100515.59;105703;1261;107460;-84
2023/06/16 09:46:48;;;;;;;8.00;6.20;;;;;;;22.93;59.35;100516.42;105588;1264;96623;-83
2023/06/16 09:49:33;;;;;;;6.40;5.70;;;;;;;23.06;58.90;100517.34;105698;1264;97141;-85
2023/06/16 09:52:25;;;;;;;6.70;6.00;;;;;;;23.17;58.44;100511.56;105540;1273;101275;-85
2023/06/16 09:55:12;;;;;;;7.50;5.80;;;;;;;23.20;58.36;100510.20;105666;1264;100179;-83
2023/06/16 09:57:58;;;;;;;8.60;6.30;;;;;;;23.29;58.59;100509.45;105749;1267;99090;-83
2023/06/16 10:00:44;;;;;;;7.60;5.50;;;;;;;23.41;58.38;100508.23;105610;1260;96619;-83
2023/06/16 10:03:32;;;;;;;6.70;4.30;;;;;;;23.52;58.02;100511.13;105975;1263;97053;-83
2023/06/16 10:06:19;;;;;;;7.70;5.20;;;;;;;23.67;58.08;100514.45;105617;1262;99998;-83
2023/06/16 10:09:07;;;;;;;5.40;4.80;;;;;;;23.83;57.34;100516.34;105605;1266;100857;-82
2023/06/16 10:11:56;;;;;;;5.60;4.80;;;;;;;23.96;57.39;100511.73;105611;1267;98500;-83
2023/06/16 10:14:43;;;;;;;5.90;5.10;;;;;;;24.08;56.44;100506.58;105770;1260;96619;-84
2023/06/16 10:17:32;;;;;;;5.50;5.00;;;;;;;24.10;55.53;100509.21;105635;1260;98156;-85
2023/06/16 10:20:20;;;;;;;6.60;4.90;;;;;;;24.04;55.06;100505.34;105892;1259;100548;-83
2023/06/16 10:23:07;;;;;;;5.80;5.10;;;;;;;23.93;54.99;100497.13;105675;1267;100347;-82
2023/06/16 10:25:54;;;;;;;5.70;5.00;;;;;;;23.87;53.89;100497.30;105502;1261;99199;-83
2023/06/16 10:28:40;;;;;;;5.90;5.30;;;;;;;23.82;53.67;100494.20;105520;1264;96612;-83
2023/06/16 10:31:27;;;;;;;5.60;5.00;;;;;;;23.72;53.86;100494.26;105655;1264;97137;-82
2023/06/16 10:34:19;;;;;;;5.70;5.20;;;;;;;23.63;54.20;100490.92;105541;1261;101750;-84
2023/06/16 10:37:04;;;;;;;6.00;5.50;;;;;;;23.63;54.01;100490.23;105744;1261;100346;-83
2023/06/16 10:39:55;;;;;;;6.80;5.20;;;;;;;23.71;54.45;100492.40;105744;1264;97711;-82
2023/06/16 10:42:41;;;;;;;8.00;4.90;;;;;;;23.80;54.50;100487.95;105604;1260;96815;-82
2023/06/16 10:45:36;;;;;;;8.20;6.20;;;;;;;23.83;53.33;100484.67;105800;1259;96553;-84
2023/06/16 10:48:22;;;;;;;6.80;6.10;;;;;;;23.83;52.99;100485.39;105723;1264;100696;-83
2023/06/16 10:51:07;;;;;;;6.50;5.60;;;;;;;23.85;52.52;100482.91;105920;1260;99077;-84
2023/06/16 10:53:55;;;;;;;6.20;5.30;;;;;;;23.89;52.70;100481.44;105806;1260;97732;-84
2023/06/16 10:57:04;;;;;;;8.00;6.40;;;;;;;23.92;53.14;100476.61;105758;1260;96639;-83
2023/06/16 10:59:56;;;;;;;12.90;6.00;;;;;;;23.97;52.94;100475.55;105760;1264;97047;-83
2023/06/16 11:02:57;;;;;;;7.80;5.40;;;;;;;24.07;53.62;100473.30;105838;1264;101342;-82
2023/06/16 11:05:46;;;;;;;6.10;5.30;;;;;;;24.24;53.45;100474.08;105831;1260;98972;-82
2023/06/16 11:08:49;;;;;;;5.60;5.20;;;;;;;24.41;53.38;100477.19;105697;1264;97525;-82
2023/06/16 11:11:36;;;;;;;6.90;6.30;;;;;;;24.57;53.85;100472.73;105736;1262;97119;-82
2023/06/16 11:14:23;;;;;;;7.50;6.40;;;;;;;24.73;52.89;100472.87;105837;1261;97050;-83
2023/06/16 11:37:38;;;;;;;7.60;6.80;;;;;;;25.06;49.66;100457.88;103981;1285;639509;-82
2023/06/16 11:40:30;;;;;;;8.80;6.60;;;;;;;25.06;49.78;100457.49;105296;1270;195656;-82
2023/06/16 11:43:18;;;;;;;9.50;7.00;;;;;;;25.00;49.72;100455.84;105283;1270;95890;-82
2023/06/16 11:46:03;;;;;;;12.50;6.50;;;;;;;24.95;49.78;100455.04;105586;1267;98590;-85
2023/06/16 11:48:51;;;;;;;7.60;6.90;;;;;;;24.92;49.84;100453.27;105510;1264;99186;-84
2023/06/16 11:51:37;;;;;;;7.80;7.10;;;;;;;24.89;50.06;100448.19;105441;1267;98945;-84
2023/06/16 12:05:46;;;;;;;7.60;6.90;;;;;;;25.09;49.16;100441.79;104245;1283;640321;-82
2023/06/16 12:08:45;;;;;;;8.00;7.20;;;;;;;25.09;48.68;100441.59;105761;1269;123381;-82
2023/06/16 12:11:34;;;;;;;7.70;7.00;;;;;;;24.92;48.47;100443.18;105545;1264;95982;-83
2023/06/16 12:14:21;;;;;;;8.50;7.50;;;;;;;24.82;49.36;100441.83;106147;1263;98595;-84
2023/06/16 12:17:07;;;;;;;7.60;6.90;;;;;;;24.77;49.39;100436.59;105613;1267;100692;-83
2023/06/16 12:19:53;;;;;;;10.80;7.80;;;;;;;24.70;48.94;100434.96;105602;1265;97825;-83
2023/06/16 12:22:39;;;;;;;8.00;7.30;;;;;;;24.63;48.54;100439.27;106224;1257;97006;-81
2023/06/16 12:25:26;;;;;;;8.70;7.80;;;;;;;24.56;48.57;100437.18;106123;1262;95942;-83
2023/06/16 12:28:18;;;;;;;8.90;7.50;;;;;;;24.53;49.08;100435.79;106087;1257;97395;-84
2023/06/16 12:31:04;;;;;;;8.50;7.20;;;;;;;24.55;49.08;100433.58;106171;1258;100857;-82
2023/06/16 12:33:51;;;;;;;8.30;7.20;;;;;;;24.59;49.52;100431.31;106283;1257;97673;-83
2023/06/16 12:36:40;;;;;;;7.50;6.80;;;;;;;24.65;49.45;100426.40;106274;1258;95890;-83
2023/06/16 12:39:26;;;;;;;8.40;7.50;;;;;;;24.75;49.23;100424.77;106293;1257;95844;-84
2023/06/16 12:42:12;;;;;;;7.20;6.50;;;;;;;24.84;48.74;100429.20;106324;1257;98866;-82
2023/06/16 12:45:02;;;;;;;7.90;6.90;;;;;;;24.90;48.25;100428.83;106314;1257;99078;-84
2023/06/16 12:47:47;;;;;;;7.60;6.90;;;;;;;24.95;48.03;100427.77;106230;1257;98953;-82
2023/06/16 12:50:33;;;;;;;10.50;7.70;;;;;;;25.06;48.51;100426.23;106195;1263;95896;-82
2023/06/16 12:53:18;;;;;;;8.20;7.30;;;;;;;25.21;48.90;100425.08;106104;1257;95863;-82
2023/06/16 12:56:06;;;;;;;10.20;7.10;;;;;;;25.37;49.11;100425.55;106420;1260;98638;-83
2023/06/16 12:58:52;;;;;;;8.40;7.10;;;;;;;25.52;48.59;100426.09;105892;1258;100098;-82
2023/06/16 13:01:38;;;;;;;8.00;7.30;;;;;;;25.59;47.88;100423.61;106072;1263;98453;-82
2023/06/16 13:04:25;;;;;;;7.90;7.00;;;;;;;25.58;47.66;100424.55;106745;1260;95905;-91
2023/06/16 13:07:12;;;;;;;7.60;6.90;;;;;;;25.61;47.78;100424.73;107157;1257;95182;-85
2023/06/16 13:09:58;;;;;;;9.00;7.20;;;;;;;25.66;48.38;100419.02;106567;1256;98764;-87
2023/06/16 13:12:43;;;;;;;8.30;7.50;;;;;;;25.73;48.19;100412.15;106414;1257;100519;-87
2023/06/16 13:15:30;;;;;;;8.60;7.80;;;;;;;25.76;47.53;100412.13;106369;1259;98526;-81